Time;durP1;ratioP1;P1;durP2;ratioP2;P2;SDS_P1;SDS_P2;PMS_P1;PMS_P2;Temp;Humidity;BMP_temperature;BMP_pressure;BME280_temperature;BME280_humidity;BME280_pressure;Samples;Min_cycle;Max_cycle;Signal;HPM_P1;HPM_P2
2021/12/18 00:01:27;;;;;;;15.60;10.13;;;7.30;99.90;;;;;;5072974;28;20568;-83
2021/12/18 00:03:54;;;;;;;14.27;8.67;;;7.40;99.90;;;;;;5055396;28;20184;-83
2021/12/18 00:06:20;;;;;;;14.77;9.90;;;7.30;99.90;;;;;;5072322;28;20176;-83
2021/12/18 00:08:58;;;;;;;18.13;10.13;;;7.30;99.90;;;;;;5072685;28;20176;-79
2021/12/18 00:11:33;;;;;;;15.43;10.03;;;7.40;99.90;;;;;;5056382;28;20184;-79
2021/12/18 00:13:58;;;;;;;13.80;8.70;;;7.30;99.90;;;;;;5072543;28;20204;-79
2021/12/18 00:19:46;;;;;;;15.70;9.40;;;7.40;99.90;;;;;;5066822;28;20182;-79
2021/12/18 00:22:12;;;;;;;13.87;8.97;;;7.40;99.90;;;;;;5072315;28;20259;-79
2021/12/18 00:24:38;;;;;;;15.10;10.00;;;7.20;99.90;;;;;;5072633;28;20221;-79
2021/12/18 00:27:05;;;;;;;13.87;9.23;;;7.30;99.90;;;;;;5055582;28;20565;-79
2021/12/18 00:29:31;;;;;;;13.40;9.20;;;7.40;99.90;;;;;;5055644;28;20176;-80
2021/12/18 00:31:57;;;;;;;14.63;9.67;;;7.40;99.90;;;;;;5055475;28;20302;-80
2021/12/18 00:34:23;;;;;;;13.70;9.03;;;7.30;99.90;;;;;;5039089;28;20226;-83
2021/12/18 00:36:50;;;;;;;13.73;9.03;;;7.30;99.90;;;;;;5055568;28;20206;-84
2021/12/18 00:39:18;;;;;;;15.03;9.07;;;7.20;99.90;;;;;;5072108;28;20180;-80
2021/12/18 00:44:13;;;;;;;14.07;9.77;;;7.20;99.90;;;;;;5073050;28;20172;-79
2021/12/18 00:46:43;;;;;;;14.37;9.33;;;7.30;99.90;;;;;;5055965;28;20183;-80
2021/12/18 00:49:15;;;;;;;12.17;8.53;;;7.10;99.90;;;;;;5056736;28;20188;-83
2021/12/18 00:51:41;;;;;;;13.37;9.23;;;6.80;99.90;;;;;;5071895;28;20172;-80
2021/12/18 00:54:07;;;;;;;11.73;8.63;;;6.70;99.90;;;;;;5055091;28;20203;-81
2021/12/18 00:56:34;;;;;;;13.63;9.67;;;6.80;99.90;;;;;;5038786;28;20168;-84
2021/12/18 00:58:59;;;;;;;13.53;9.27;;;6.80;99.90;;;;;;5055183;28;20185;-81
2021/12/18 01:01:27;;;;;;;13.47;9.47;;;6.90;99.90;;;;;;5056272;28;20562;-79
2021/12/18 01:03:55;;;;;;;14.33;9.83;;;7.00;99.90;;;;;;5038471;28;20187;-78
2021/12/18 01:06:22;;;;;;;13.70;9.53;;;6.80;99.90;;;;;;5071218;28;20168;-80
2021/12/18 01:08:54;;;;;;;13.63;9.67;;;6.90;99.90;;;;;;5055186;28;20173;-80
2021/12/18 01:11:30;;;;;;;15.83;9.43;;;7.00;99.90;;;;;;5072812;28;20226;-79
2021/12/18 01:16:25;;;;;;;14.90;9.30;;;6.60;99.90;;;;;;5070560;28;20258;-82
2021/12/18 01:24:21;;;;;;;12.73;8.53;;;6.80;99.90;;;;;;5072832;28;20172;-79
2021/12/18 01:26:47;;;;;;;14.17;9.70;;;6.90;99.90;;;;;;5054277;28;20169;-86
2021/12/18 01:29:12;;;;;;;13.70;9.20;;;6.80;99.90;;;;;;5071003;28;20488;-85
2021/12/18 01:31:38;;;;;;;13.60;9.57;;;6.80;99.90;;;;;;5072151;28;20172;-79
2021/12/18 01:34:04;;;;;;;13.07;8.90;;;6.90;99.90;;;;;;5021690;28;20577;-85
2021/12/18 01:36:30;;;;;;;13.03;9.07;;;6.90;99.90;;;;;;5054685;28;20226;-78
2021/12/18 01:38:57;;;;;;;14.63;9.77;;;7.00;99.90;;;;;;5053967;28;20179;-78
2021/12/18 01:41:23;;;;;;;15.17;10.20;;;7.00;99.90;;;;;;5037879;28;20659;-78
2021/12/18 01:46:59;;;;;;;12.83;8.90;;;7.00;99.90;;;;;;5071208;28;20558;-84
2021/12/18 01:52:19;;;;;;;14.47;9.53;;;7.00;99.90;;;;;;5056569;28;20188;-80
2021/12/18 01:54:46;;;;;;;16.13;9.73;;;6.90;99.90;;;;;;5071012;28;20275;-80
2021/12/18 01:57:13;;;;;;;16.47;10.13;;;6.70;99.90;;;;;;5036740;28;20203;-78
2021/12/18 01:59:44;;;;;;;15.10;9.53;;;6.80;99.90;;;;;;5070995;28;20175;-80
2021/12/18 02:02:10;;;;;;;13.83;9.73;;;6.90;99.90;;;;;;5053944;28;20176;-78
2021/12/18 02:04:36;;;;;;;14.13;9.37;;;7.00;99.90;;;;;;5070234;28;20263;-79
2021/12/18 02:07:03;;;;;;;12.37;8.60;;;7.00;99.90;;;;;;5050798;28;20766;-84
2021/12/18 02:09:51;;;;;;;16.33;10.63;;;7.00;99.90;;;;;;5058687;28;20262;-79
2021/12/18 02:12:18;;;;;;;14.57;8.37;;;7.00;99.90;;;;;;5070179;28;20181;-80
2021/12/18 02:22:53;;;;;;;13.87;8.90;;;6.80;99.90;;;;;;5058168;28;20219;-82
2021/12/18 02:25:20;;;;;;;14.53;9.27;;;6.80;99.90;;;;;;5052601;28;20518;-79
2021/12/18 02:27:48;;;;;;;12.57;8.87;;;6.90;99.90;;;;;;5037524;28;20271;-83
2021/12/18 02:30:15;;;;;;;16.63;8.63;;;6.90;99.90;;;;;;5053917;28;20204;-83
2021/12/18 02:32:41;;;;;;;12.37;8.03;;;6.80;99.90;;;;;;5037066;28;20176;-83
2021/12/18 02:35:09;;;;;;;13.27;9.07;;;6.80;99.90;;;;;;5053118;28;20588;-82
2021/12/18 02:37:40;;;;;;;11.90;8.40;;;6.80;99.90;;;;;;5054396;28;20230;-84
2021/12/18 02:42:36;;;;;;;13.93;9.03;;;6.70;99.90;;;;;;5071436;28;20701;-84
2021/12/18 02:45:05;;;;;;;16.90;10.47;;;6.70;99.90;;;;;;5070188;28;20260;-79
2021/12/18 02:47:31;;;;;;;13.70;9.20;;;6.70;99.90;;;;;;5070298;28;20230;-84
2021/12/18 02:49:57;;;;;;;12.67;8.60;;;6.80;99.90;;;;;;5053221;28;20579;-85
2021/12/18 02:52:28;;;;;;;13.73;8.63;;;6.90;99.90;;;;;;5053501;28;20596;-78
2021/12/18 02:54:54;;;;;;;13.03;8.70;;;6.70;99.90;;;;;;5069487;28;20269;-78
2021/12/18 02:57:20;;;;;;;15.40;8.77;;;6.90;99.90;;;;;;5053193;28;20635;-84
2021/12/18 02:59:50;;;;;;;15.27;9.73;;;6.80;99.90;;;;;;5054101;28;20249;-83
2021/12/18 03:02:18;;;;;;;14.33;9.33;;;6.80;99.90;;;;;;5071497;28;20177;-78
2021/12/18 03:04:48;;;;;;;13.93;8.77;;;6.80;99.90;;;;;;5053692;28;20267;-78
2021/12/18 03:07:16;;;;;;;14.20;9.53;;;6.80;99.90;;;;;;5055103;28;20801;-79
2021/12/18 03:19:00;;;;;;;15.90;10.13;;;6.80;99.90;;;;;;5057068;28;20188;-78
2021/12/18 03:23:38;;;;;;;15.13;8.80;;;6.50;99.90;;;;;;5057933;28;20207;-82
2021/12/18 03:26:04;;;;;;;14.27;9.20;;;6.60;99.90;;;;;;5052143;28;20206;-84
2021/12/18 03:28:30;;;;;;;15.17;9.43;;;6.60;99.90;;;;;;5060335;28;20204;-83
2021/12/18 03:30:56;;;;;;;13.10;8.73;;;6.70;99.90;;;;;;5056046;28;20181;-78
2021/12/18 03:33:25;;;;;;;12.83;8.43;;;6.60;99.90;;;;;;5072847;28;20207;-83
2021/12/18 03:35:51;;;;;;;15.10;9.57;;;6.80;99.90;;;;;;5074035;28;20176;-79
2021/12/18 03:38:16;;;;;;;13.87;9.63;;;6.70;99.90;;;;;;5060161;28;20722;-78
2021/12/18 03:40:42;;;;;;;14.30;9.00;;;6.70;99.90;;;;;;5085528;28;20180;-79
2021/12/18 03:43:08;;;;;;;14.93;8.77;;;6.70;99.90;;;;;;5078649;28;20184;-78
2021/12/18 03:45:34;;;;;;;13.47;9.20;;;6.70;99.90;;;;;;5039012;28;20639;-84
2021/12/18 03:48:00;;;;;;;15.00;9.83;;;6.50;99.90;;;;;;5073624;28;20612;-83
2021/12/18 03:50:26;;;;;;;14.97;9.07;;;6.60;99.90;;;;;;5039261;28;20234;-79
2021/12/18 03:52:51;;;;;;;15.87;8.63;;;6.70;99.90;;;;;;5072176;28;20196;-82
2021/12/18 03:55:18;;;;;;;16.07;9.63;;;6.60;99.90;;;;;;5072503;28;20298;-84
2021/12/18 03:57:44;;;;;;;13.07;8.50;;;6.50;99.90;;;;;;5022485;28;20197;-80
2021/12/18 04:00:12;;;;;;;14.93;8.97;;;6.60;99.90;;;;;;5056959;28;20176;-79
2021/12/18 04:02:39;;;;;;;15.93;9.43;;;6.60;99.90;;;;;;5072196;28;20173;-83
2021/12/18 04:05:05;;;;;;;14.37;8.60;;;6.50;99.90;;;;;;5056352;28;20169;-78
2021/12/18 04:07:39;;;;;;;13.37;8.70;;;6.60;99.90;;;;;;5055645;28;20250;-84
2021/12/18 04:10:06;;;;;;;13.10;8.10;;;6.70;99.90;;;;;;5055466;28;20660;-83
2021/12/18 04:12:31;;;;;;;16.03;8.93;;;6.60;99.90;;;;;;5055583;28;20181;-82
2021/12/18 04:14:57;;;;;;;14.50;9.03;;;6.60;99.90;;;;;;5038787;28;20528;-78
2021/12/18 04:17:23;;;;;;;15.13;9.03;;;6.30;99.90;;;;;;5073321;28;20173;-78
2021/12/18 04:19:49;;;;;;;14.83;9.13;;;6.50;99.90;;;;;;5072482;28;20226;-78
2021/12/18 04:22:14;;;;;;;12.70;8.57;;;6.50;99.90;;;;;;5055241;28;20276;-83
2021/12/18 04:24:40;;;;;;;14.90;8.53;;;6.30;99.90;;;;;;5055611;28;20180;-85
2021/12/18 04:27:06;;;;;;;13.03;7.67;;;6.40;99.90;;;;;;5071902;28;20575;-79
2021/12/18 04:29:31;;;;;;;12.53;8.33;;;6.40;99.90;;;;;;5071426;28;20234;-84
2021/12/18 04:31:57;;;;;;;14.57;8.67;;;6.20;99.90;;;;;;5054935;28;20176;-79
2021/12/18 04:34:23;;;;;;;13.87;8.87;;;6.20;99.90;;;;;;5055472;28;20211;-79
2021/12/18 04:36:49;;;;;;;13.00;8.37;;;6.00;99.90;;;;;;5072334;28;20641;-84
2021/12/18 04:39:15;;;;;;;13.13;7.90;;;6.20;99.90;;;;;;5072567;28;20643;-78
2021/12/18 04:41:49;;;;;;;14.53;8.87;;;5.90;99.90;;;;;;5071636;28;20652;-80
2021/12/18 04:44:16;;;;;;;12.67;8.33;;;5.90;99.90;;;;;;5072620;28;20176;-79
2021/12/18 04:46:41;;;;;;;12.00;7.93;;;6.00;99.90;;;;;;5038540;28;20180;-84
2021/12/18 04:49:07;;;;;;;14.37;8.93;;;5.80;99.90;;;;;;5054411;28;20184;-82
2021/12/18 04:51:33;;;;;;;15.67;9.20;;;5.90;99.90;;;;;;5072462;28;20172;-84
2021/12/18 04:53:59;;;;;;;14.23;8.83;;;6.00;99.90;;;;;;5037898;28;20212;-83
2021/12/18 04:56:25;;;;;;;15.07;9.00;;;6.10;99.90;;;;;;5071021;28;20230;-84
2021/12/18 04:58:51;;;;;;;15.27;8.57;;;6.00;99.90;;;;;;5072047;28;20165;-84
2021/12/18 05:01:17;;;;;;;14.50;8.27;;;6.00;99.90;;;;;;5054819;28;20582;-84
2021/12/18 05:03:44;;;;;;;15.03;9.07;;;6.00;99.90;;;;;;5054548;28;20208;-79
2021/12/18 05:06:10;;;;;;;15.87;8.37;;;6.00;99.90;;;;;;5037852;28;20177;-79
2021/12/18 05:08:36;;;;;;;14.10;8.83;;;6.00;99.90;;;;;;5070796;28;20172;-84
2021/12/18 05:11:02;;;;;;;14.93;7.90;;;6.00;99.90;;;;;;5071058;28;20176;-78
2021/12/18 05:13:28;;;;;;;14.73;8.30;;;6.00;99.90;;;;;;5070685;28;20659;-85
2021/12/18 05:15:54;;;;;;;13.70;8.23;;;5.60;99.90;;;;;;5054195;28;20220;-78
2021/12/18 05:18:19;;;;;;;14.40;7.80;;;5.80;99.90;;;;;;5071025;28;20226;-84
2021/12/18 05:20:45;;;;;;;13.80;7.90;;;6.10;99.90;;;;;;5071182;28;20168;-79
2021/12/18 05:23:11;;;;;;;15.00;9.10;;;6.00;99.90;;;;;;5070798;28;20184;-83
2021/12/18 05:25:37;;;;;;;12.10;7.40;;;5.90;99.90;;;;;;5054322;28;20251;-78
2021/12/18 05:28:02;;;;;;;12.80;7.43;;;6.00;99.90;;;;;;5054067;28;20912;-83
2021/12/18 05:30:28;;;;;;;14.73;7.57;;;5.90;99.90;;;;;;5070024;28;20233;-78
2021/12/18 05:32:54;;;;;;;12.43;7.10;;;6.10;99.90;;;;;;5071646;28;20204;-79
2021/12/18 05:35:20;;;;;;;12.83;7.30;;;6.00;99.90;;;;;;5037379;28;20180;-79
2021/12/18 05:37:51;;;;;;;12.43;7.57;;;5.90;99.90;;;;;;5053977;28;20184;-79
2021/12/18 05:40:20;;;;;;;11.20;6.87;;;5.80;99.90;;;;;;5070344;28;20164;-82
2021/12/18 05:42:47;;;;;;;10.17;6.27;;;5.70;99.90;;;;;;5054440;28;20251;-83
2021/12/18 05:45:13;;;;;;;11.47;6.17;;;5.80;99.90;;;;;;5037426;28;20579;-85
2021/12/18 05:47:39;;;;;;;12.00;7.23;;;5.60;99.90;;;;;;5070123;28;20180;-79
2021/12/18 05:50:07;;;;;;;14.33;7.63;;;5.60;99.90;;;;;;5072191;28;20813;-78
2021/12/18 05:52:33;;;;;;;12.20;6.97;;;5.70;99.90;;;;;;5053468;28;20566;-84
2021/12/18 05:54:59;;;;;;;10.33;6.67;;;5.80;99.90;;;;;;5071346;28;20208;-78
2021/12/18 05:57:24;;;;;;;12.00;7.53;;;5.70;99.90;;;;;;5054222;28;20179;-84
2021/12/18 05:59:50;;;;;;;12.60;7.10;;;5.70;99.90;;;;;;5071232;28;20196;-83
2021/12/18 06:02:16;;;;;;;11.83;7.20;;;5.80;99.90;;;;;;5021141;28;20183;-84
2021/12/18 06:04:42;;;;;;;12.77;7.10;;;5.60;99.90;;;;;;5053276;28;20624;-79
2021/12/18 06:07:17;;;;;;;13.37;7.50;;;5.70;99.90;;;;;;5037792;28;20188;-79
2021/12/18 06:09:42;;;;;;;12.93;7.67;;;5.60;99.90;;;;;;5070629;28;20612;-84
2021/12/18 06:12:09;;;;;;;10.67;7.40;;;5.60;99.90;;;;;;5020647;28;20272;-78
2021/12/18 06:14:35;;;;;;;12.07;6.90;;;5.70;99.90;;;;;;5069652;28;20204;-79
2021/12/18 06:17:00;;;;;;;13.60;7.50;;;5.80;99.90;;;;;;5036831;28;20230;-84
2021/12/18 06:19:26;;;;;;;13.30;7.43;;;5.90;99.90;;;;;;5035923;28;20175;-82
2021/12/18 06:21:52;;;;;;;12.63;7.30;;;5.70;99.90;;;;;;5053814;28;20543;-80
2021/12/18 06:24:18;;;;;;;12.53;7.70;;;5.60;99.90;;;;;;5035936;28;20271;-78
2021/12/18 06:26:44;;;;;;;10.77;7.10;;;5.50;99.90;;;;;;5070273;28;20838;-78
2021/12/18 06:29:10;;;;;;;12.03;7.20;;;5.80;99.90;;;;;;5054400;28;20177;-77
2021/12/18 06:31:37;;;;;;;11.30;7.07;;;5.80;99.90;;;;;;5070516;28;20670;-84
2021/12/18 06:34:04;;;;;;;10.33;5.83;;;5.90;99.90;;;;;;5036374;28;20980;-79
2021/12/18 06:36:30;;;;;;;10.37;6.70;;;5.80;99.90;;;;;;5071723;28;20207;-83
2021/12/18 06:38:55;;;;;;;10.00;6.27;;;5.90;99.90;;;;;;5070005;28;20196;-86
2021/12/18 06:41:21;;;;;;;11.80;6.57;;;5.90;99.90;;;;;;5069938;28;20691;-79
2021/12/18 06:43:47;;;;;;;11.73;6.60;;;6.10;99.90;;;;;;5074755;28;20186;-84
2021/12/18 06:46:13;;;;;;;8.93;5.97;;;5.90;99.90;;;;;;5074423;28;20234;-78
2021/12/18 06:48:39;;;;;;;10.43;5.63;;;5.90;99.90;;;;;;5056710;28;20180;-81
2021/12/18 06:51:04;;;;;;;9.73;5.30;;;5.80;99.90;;;;;;5073580;28;20190;-81
2021/12/18 06:53:30;;;;;;;9.97;5.67;;;5.90;99.90;;;;;;5073645;28;20208;-79
2021/12/18 06:55:56;;;;;;;10.03;6.07;;;5.90;99.90;;;;;;5056923;28;20172;-79
2021/12/18 06:58:22;;;;;;;8.83;5.37;;;5.90;99.90;;;;;;5057060;28;20618;-78
2021/12/18 07:00:48;;;;;;;8.80;4.97;;;6.00;99.90;;;;;;5041454;28;20295;-80
2021/12/18 07:03:14;;;;;;;8.17;5.33;;;6.00;99.90;;;;;;5040844;28;20181;-80
2021/12/18 07:05:40;;;;;;;8.93;5.37;;;5.70;99.90;;;;;;5073580;28;20195;-78
2021/12/18 07:08:05;;;;;;;8.33;5.43;;;5.80;99.90;;;;;;5073160;28;20200;-78
2021/12/18 07:10:32;;;;;;;10.00;5.57;;;6.00;99.90;;;;;;5073531;28;20187;-78
2021/12/18 07:12:58;;;;;;;10.60;6.10;;;5.90;99.90;;;;;;5056263;28;20172;-83
2021/12/18 07:15:24;;;;;;;11.37;6.00;;;5.50;99.90;;;;;;5073413;28;20200;-78
2021/12/18 07:17:50;;;;;;;10.43;5.53;;;5.60;99.90;;;;;;5074575;28;20172;-77
2021/12/18 07:20:17;;;;;;;8.53;5.90;;;5.90;99.90;;;;;;5056791;28;20238;-79
2021/12/18 07:22:42;;;;;;;10.40;6.10;;;6.00;99.90;;;;;;5074347;28;20594;-83
2021/12/18 07:25:09;;;;;;;9.77;5.97;;;5.80;99.90;;;;;;5056574;28;20181;-83
2021/12/18 07:27:35;;;;;;;9.73;5.70;;;5.90;99.90;;;;;;5072514;28;20169;-78
2021/12/18 07:30:02;;;;;;;11.20;5.77;;;5.80;99.90;;;;;;5073085;28;20203;-78
2021/12/18 07:32:31;;;;;;;10.03;5.77;;;5.90;99.90;;;;;;5074594;28;20627;-83
2021/12/18 07:34:57;;;;;;;10.87;6.10;;;5.90;99.90;;;;;;5073067;28;20200;-83
2021/12/18 07:37:24;;;;;;;11.37;6.03;;;6.00;99.90;;;;;;5073031;28;20176;-77
2021/12/18 07:39:51;;;;;;;11.20;6.37;;;6.00;99.90;;;;;;5056295;28;20203;-84
2021/12/18 07:42:17;;;;;;;12.10;5.90;;;6.10;99.90;;;;;;5055970;28;20188;-77
2021/12/18 07:44:43;;;;;;;10.33;6.10;;;6.10;99.90;;;;;;5056208;28;20180;-82
2021/12/18 07:47:08;;;;;;;10.20;5.20;;;6.10;99.90;;;;;;5072424;28;20192;-77
2021/12/18 07:49:34;;;;;;;10.57;5.87;;;6.30;99.90;;;;;;5039364;28;20220;-81
2021/12/18 07:52:03;;;;;;;9.50;5.53;;;6.20;99.90;;;;;;5072182;28;20176;-82
2021/12/18 07:54:29;;;;;;;10.27;5.50;;;6.40;99.90;;;;;;5055179;28;20219;-83
2021/12/18 07:56:55;;;;;;;9.07;5.30;;;6.10;99.90;;;;;;5038939;28;20265;-78
2021/12/18 07:59:21;;;;;;;11.43;6.50;;;6.00;99.90;;;;;;5055068;28;20238;-79
2021/12/18 08:01:47;;;;;;;9.23;5.27;;;6.10;99.90;;;;;;5069335;28;20616;-83
2021/12/18 08:04:12;;;;;;;10.73;5.77;;;6.00;99.90;;;;;;5055282;28;20557;-80
2021/12/18 08:06:39;;;;;;;11.57;5.67;;;6.00;99.90;;;;;;5048603;28;20185;-81
2021/12/18 08:09:05;;;;;;;10.70;5.60;;;6.00;99.90;;;;;;5054595;28;20196;-82
2021/12/18 08:11:30;;;;;;;9.60;5.67;;;6.20;99.90;;;;;;5071536;28;20624;-84
2021/12/18 08:13:56;;;;;;;10.17;5.33;;;6.30;99.90;;;;;;5071398;28;20208;-83
2021/12/18 08:16:22;;;;;;;11.43;5.70;;;6.10;99.90;;;;;;5063169;28;20184;-77
2021/12/18 08:18:48;;;;;;;10.57;5.77;;;6.20;99.90;;;;;;5070951;28;20625;-83
2021/12/18 08:21:14;;;;;;;11.93;5.87;;;6.30;99.90;;;;;;5071344;28;20177;-80
2021/12/18 08:23:40;;;;;;;8.53;5.47;;;6.10;99.90;;;;;;5068694;28;20183;-82
2021/12/18 08:26:06;;;;;;;12.47;6.53;;;6.30;99.90;;;;;;5037163;28;20184;-83
2021/12/18 08:28:32;;;;;;;10.73;6.33;;;6.30;99.90;;;;;;5071023;28;20177;-81
2021/12/18 08:30:58;;;;;;;10.10;5.63;;;6.30;99.90;;;;;;5070570;28;20184;-80
2021/12/18 08:33:24;;;;;;;10.80;5.93;;;6.30;99.90;;;;;;5054173;28;20207;-80
2021/12/18 08:35:49;;;;;;;10.07;5.60;;;6.40;99.90;;;;;;5070739;28;20180;-79
2021/12/18 08:38:15;;;;;;;9.67;5.23;;;6.30;99.90;;;;;;5072011;28;20180;-82
2021/12/18 08:40:42;;;;;;;13.23;6.20;;;6.50;99.90;;;;;;5054259;28;20180;-82
2021/12/18 08:43:09;;;;;;;13.10;6.47;;;6.40;99.90;;;;;;5070110;28;20169;-83
2021/12/18 08:45:35;;;;;;;12.63;6.30;;;6.30;99.90;;;;;;5053561;28;20191;-79
2021/12/18 08:48:01;;;;;;;12.03;6.83;;;6.30;99.90;;;;;;5070650;28;20173;-82
2021/12/18 08:50:27;;;;;;;11.80;5.87;;;6.20;99.90;;;;;;5053867;28;20172;-84
2021/12/18 08:52:53;;;;;;;33.73;7.73;;;5.90;99.90;;;;;;5053851;28;20189;-79
2021/12/18 08:55:21;;;;;;;14.50;5.93;;;5.60;99.90;;;;;;5053690;28;20212;-82
2021/12/18 08:57:48;;;;;;;15.13;6.03;;;5.50;99.90;;;;;;5055968;28;20223;-83
2021/12/18 09:00:18;;;;;;;15.43;8.57;;;5.80;99.90;;;;;;5035395;28;20188;-80
2021/12/18 09:02:47;;;;;;;10.43;6.03;;;6.00;99.90;;;;;;5053456;28;20525;-84
2021/12/18 09:05:13;;;;;;;12.77;6.80;;;6.10;99.90;;;;;;5053119;28;20702;-83
2021/12/18 09:07:39;;;;;;;9.97;5.83;;;6.40;99.90;;;;;;5052035;28;20177;-79
2021/12/18 09:10:07;;;;;;;10.70;5.70;;;6.40;99.90;;;;;;5069375;28;20165;-80
2021/12/18 09:12:33;;;;;;;11.13;6.73;;;6.40;99.90;;;;;;5068628;28;20746;-80
2021/12/18 09:14:59;;;;;;;11.60;7.60;;;6.40;99.90;;;;;;5058106;28;20299;-80
2021/12/18 09:17:25;;;;;;;12.27;7.33;;;6.40;99.90;;;;;;5054659;28;20189;-88
2021/12/18 09:19:51;;;;;;;12.07;6.87;;;6.30;99.90;;;;;;5054390;28;20657;-86
2021/12/18 09:22:18;;;;;;;11.60;5.90;;;6.40;99.90;;;;;;5037569;28;20188;-82
2021/12/18 09:24:43;;;;;;;12.23;6.53;;;6.30;99.90;;;;;;5070619;28;20180;-78
2021/12/18 09:27:09;;;;;;;11.33;6.53;;;6.40;99.90;;;;;;5054429;28;20184;-78
2021/12/18 09:29:35;;;;;;;12.87;6.73;;;6.00;99.90;;;;;;5087478;28;20182;-81
2021/12/18 09:32:01;;;;;;;14.93;7.70;;;6.10;99.90;;;;;;5087860;28;20186;-80
2021/12/18 09:34:29;;;;;;;10.03;6.30;;;6.10;99.90;;;;;;5053835;28;20623;-82
2021/12/18 09:36:55;;;;;;;11.83;6.57;;;6.30;99.90;;;;;;5054815;28;20180;-84
2021/12/18 09:39:21;;;;;;;12.37;7.30;;;6.30;99.90;;;;;;5037241;28;20275;-82
2021/12/18 09:41:49;;;;;;;12.47;7.13;;;6.20;99.90;;;;;;5054713;28;20205;-86
2021/12/18 09:44:36;;;;;;;11.13;6.90;;;6.30;99.90;;;;;;5062568;28;20708;-84
2021/12/18 09:47:04;;;;;;;11.30;6.50;;;6.40;99.90;;;;;;5071667;28;20172;-82
2021/12/18 09:49:30;;;;;;;14.33;7.40;;;6.40;99.90;;;;;;5054379;28;20173;-82
2021/12/18 09:51:56;;;;;;;11.47;6.93;;;6.50;99.90;;;;;;5038435;28;20193;-81
2021/12/18 09:54:24;;;;;;;12.40;7.30;;;6.40;99.90;;;;;;5038070;28;20254;-81
2021/12/18 09:56:51;;;;;;;12.20;7.00;;;6.30;99.90;;;;;;5070075;28;20202;-82
2021/12/18 09:59:19;;;;;;;11.77;6.70;;;6.20;99.90;;;;;;5059522;28;20181;-82
2021/12/18 10:01:45;;;;;;;14.23;7.20;;;6.30;99.90;;;;;;5067829;28;20546;-83
2021/12/18 10:04:28;;;;;;;11.10;6.63;;;6.50;99.90;;;;;;5034940;28;20287;-78
2021/12/18 10:06:57;;;;;;;10.17;6.70;;;6.50;99.90;;;;;;5052679;28;20267;-85
2021/12/18 10:09:23;;;;;;;10.87;5.83;;;5.90;99.90;;;;;;5052936;28;20216;-82
2021/12/18 10:11:59;;;;;;;11.70;7.00;;;6.10;99.90;;;;;;5068673;28;20223;-82
2021/12/18 10:15:15;;;;;;;10.60;6.17;;;6.40;99.90;;;;;;5062731;28;20213;-82
2021/12/18 10:17:42;;;;;;;11.30;6.13;;;6.60;99.90;;;;;;4973125;28;20187;-83
2021/12/18 10:20:11;;;;;;;12.27;6.57;;;6.40;99.90;;;;;;5064677;28;20197;-82
2021/12/18 10:22:49;;;;;;;11.03;6.57;;;6.50;99.90;;;;;;5057978;28;20666;-81
2021/12/18 10:25:19;;;;;;;9.77;6.03;;;6.60;99.90;;;;;;5051209;28;20192;-80
2021/12/18 10:28:16;;;;;;;10.10;6.40;;;6.70;99.90;;;;;;5049806;28;20198;-82
2021/12/18 10:30:46;;;;;;;9.93;5.63;;;6.60;99.90;;;;;;5055531;28;20203;-83
2021/12/18 10:33:13;;;;;;;10.30;6.30;;;6.50;99.90;;;;;;5069847;28;20230;-80
2021/12/18 10:35:41;;;;;;;12.07;6.50;;;6.50;99.90;;;;;;5053441;28;20651;-85
2021/12/18 10:38:07;;;;;;;11.40;6.23;;;6.60;99.90;;;;;;5054170;28;20185;-83
2021/12/18 10:40:48;;;;;;;12.87;6.77;;;6.70;99.90;;;;;;5067796;28;20184;-80
2021/12/18 10:43:15;;;;;;;10.07;6.40;;;6.60;99.90;;;;;;5054299;28;20609;-78
2021/12/18 10:45:41;;;;;;;10.60;6.53;;;6.60;99.90;;;;;;5068193;28;20295;-83
2021/12/18 10:48:12;;;;;;;11.20;6.60;;;6.70;99.90;;;;;;5052459;28;20189;-79
2021/12/18 10:50:50;;;;;;;11.53;6.50;;;6.80;99.90;;;;;;5052740;28;20527;-75
2021/12/18 10:53:24;;;;;;;11.27;6.33;;;6.50;99.90;;;;;;5070527;28;20291;-75
2021/12/18 10:56:02;;;;;;;10.87;6.50;;;6.70;99.90;;;;;;5069807;28;20653;-74
2021/12/18 10:58:31;;;;;;;14.93;7.33;;;6.60;99.90;;;;;;5086449;28;20191;-81
2021/12/18 11:01:13;;;;;;;13.73;6.57;;;6.60;99.90;;;;;;5069366;28;20275;-82
2021/12/18 11:03:44;;;;;;;9.80;6.00;;;6.30;99.90;;;;;;5085565;28;20259;-82
2021/12/18 11:06:25;;;;;;;9.57;5.77;;;6.40;99.90;;;;;;5068565;28;20294;-82
2021/12/18 11:09:00;;;;;;;11.63;6.37;;;6.10;99.90;;;;;;5067307;28;20184;-85
2021/12/18 11:14:03;;;;;;;8.97;5.60;;;6.30;99.90;;;;;;5067819;28;20294;-82
2021/12/18 11:16:30;;;;;;;11.10;5.77;;;6.40;99.90;;;;;;5050271;28;20188;-80
2021/12/18 11:18:56;;;;;;;10.63;6.13;;;6.40;99.90;;;;;;5082800;28;20191;-77
2021/12/18 11:21:26;;;;;;;10.40;6.30;;;6.60;99.90;;;;;;5060680;28;20571;-76
2021/12/18 11:24:05;;;;;;;10.60;5.33;;;6.50;99.90;;;;;;5063678;28;20181;-80
2021/12/18 11:27:00;;;;;;;9.10;5.33;;;6.30;99.90;;;;;;5064656;28;20180;-76
2021/12/18 11:29:34;;;;;;;8.63;5.03;;;6.30;99.90;;;;;;5068395;28;20184;-82
2021/12/18 11:32:01;;;;;;;10.47;5.93;;;6.30;99.90;;;;;;5071255;28;20570;-82
2021/12/18 11:34:27;;;;;;;9.73;5.80;;;6.40;99.90;;;;;;5069057;28;20212;-82
2021/12/18 11:36:54;;;;;;;10.23;6.00;;;6.50;99.90;;;;;;5086549;28;20188;-80
2021/12/18 11:39:27;;;;;;;12.20;6.83;;;6.60;99.90;;;;;;5051461;28;20172;-75
2021/12/18 11:41:53;;;;;;;13.13;7.33;;;6.70;99.90;;;;;;5086902;28;20211;-83
2021/12/18 11:44:26;;;;;;;10.83;6.43;;;6.70;99.90;;;;;;5053061;28;20279;-81
2021/12/18 11:46:53;;;;;;;12.00;6.33;;;6.70;99.90;;;;;;5032101;28;20185;-79
2021/12/18 11:49:21;;;;;;;9.90;5.73;;;6.70;99.90;;;;;;5069940;28;20188;-78
2021/12/18 11:52:04;;;;;;;9.60;5.43;;;6.50;99.90;;;;;;5052467;28;20216;-79
2021/12/18 11:54:47;;;;;;;8.57;4.90;;;6.30;99.90;;;;;;5052931;28;20200;-79
2021/12/18 11:57:33;;;;;;;10.60;5.60;;;6.20;99.90;;;;;;5086553;28;20239;-76
2021/12/18 11:59:59;;;;;;;10.10;5.07;;;6.50;99.90;;;;;;5098712;28;20258;-87
2021/12/18 12:02:53;;;;;;;11.57;5.63;;;6.80;99.90;;;;;;5064047;28;20732;-87
2021/12/18 12:05:31;;;;;;;11.33;5.23;;;6.80;99.90;;;;;;5053668;28;20184;-85
2021/12/18 12:08:19;;;;;;;8.60;5.20;;;6.80;99.90;;;;;;5068116;28;20663;-80
2021/12/18 12:11:30;;;;;;;9.07;5.40;;;6.90;99.90;;;;;;5037870;28;20269;-84
2021/12/18 12:14:08;;;;;;;8.40;4.93;;;6.90;99.90;;;;;;5065404;28;20208;-81
2021/12/18 12:16:59;;;;;;;9.23;5.00;;;6.80;99.90;;;;;;5089230;28;20527;-85
2021/12/18 12:19:39;;;;;;;8.13;5.37;;;6.30;99.90;;;;;;5063207;28;20193;-80
2021/12/18 12:22:08;;;;;;;8.87;5.30;;;6.30;99.90;;;;;;5079163;28;20187;-80
2021/12/18 12:24:57;;;;;;;8.80;4.63;;;6.40;99.90;;;;;;5064533;28;20203;-80
2021/12/18 12:27:35;;;;;;;11.27;5.10;;;6.60;99.90;;;;;;5088080;28;20267;-86
2021/12/18 12:30:09;;;;;;;9.33;5.30;;;6.50;99.90;;;;;;5089317;28;20195;-80
2021/12/18 12:32:36;;;;;;;7.97;5.03;;;6.60;99.90;;;;;;5050324;28;20177;-86
2021/12/18 12:35:12;;;;;;;10.47;5.60;;;6.50;99.90;;;;;;5036342;28;20262;-83
2021/12/18 12:37:46;;;;;;;12.57;7.23;;;6.60;99.90;;;;;;5071565;28;20195;-80
2021/12/18 12:40:15;;;;;;;9.97;5.07;;;6.50;99.90;;;;;;5038468;28;20592;-82
2021/12/18 12:43:14;;;;;;;10.90;5.40;;;6.60;99.90;;;;;;5067534;28;20644;-80
2021/12/18 12:45:42;;;;;;;10.00;5.90;;;6.70;99.90;;;;;;5067798;28;20179;-81
2021/12/18 12:48:08;;;;;;;10.90;5.93;;;6.80;99.90;;;;;;5058056;28;20183;-82
2021/12/18 12:50:35;;;;;;;10.97;6.17;;;6.90;99.90;;;;;;5060966;28;20189;-83
2021/12/18 12:53:05;;;;;;;10.77;6.63;;;7.00;99.90;;;;;;5072361;28;20204;-79
2021/12/18 12:55:38;;;;;;;10.63;6.60;;;6.90;99.90;;;;;;5036090;28;20212;-79
2021/12/18 12:58:22;;;;;;;12.10;6.27;;;6.90;99.90;;;;;;5069756;28;20299;-84
2021/12/18 13:00:55;;;;;;;10.53;6.23;;;6.70;99.90;;;;;;5076329;28;20185;-83
2021/12/18 13:03:24;;;;;;;10.83;6.00;;;6.80;99.90;;;;;;5059527;28;20196;-83
2021/12/18 13:05:54;;;;;;;10.67;6.07;;;6.80;99.90;;;;;;5066384;28;20184;-84
2021/12/18 13:08:20;;;;;;;13.77;5.87;;;6.60;99.90;;;;;;5052684;28;20195;-78
2021/12/18 13:10:49;;;;;;;13.10;6.63;;;6.80;99.90;;;;;;5064333;28;20180;-78
2021/12/18 13:13:19;;;;;;;10.13;5.70;;;6.90;99.90;;;;;;5051857;28;20232;-89
2021/12/18 13:16:00;;;;;;;10.00;6.10;;;6.90;99.90;;;;;;5052935;28;20271;-85
2021/12/18 13:18:41;;;;;;;9.10;5.43;;;6.80;99.90;;;;;;5077794;28;20202;-77
2021/12/18 13:21:09;;;;;;;11.00;6.30;;;6.70;99.90;;;;;;5062989;28;20580;-78
2021/12/18 13:23:38;;;;;;;18.70;7.47;;;6.60;99.90;;;;;;5063615;28;20233;-86
2021/12/18 13:26:32;;;;;;;12.27;6.73;;;6.60;99.90;;;;;;5053250;28;20327;-84
2021/12/18 13:29:03;;;;;;;9.43;6.00;;;6.80;99.90;;;;;;5065284;28;20534;-80
2021/12/18 13:31:35;;;;;;;10.67;6.23;;;6.70;99.90;;;;;;5069446;28;20215;-84
2021/12/18 13:34:10;;;;;;;12.40;5.63;;;6.50;99.90;;;;;;5052622;28;20600;-77
2021/12/18 13:37:03;;;;;;;8.80;5.90;;;6.10;99.90;;;;;;5035396;28;20719;-79
2021/12/18 13:39:49;;;;;;;10.43;5.93;;;6.50;99.90;;;;;;5068910;28;20208;-82
2021/12/18 13:42:20;;;;;;;9.40;5.70;;;6.70;99.90;;;;;;5054750;28;20597;-84